ロメ の空港の天気 - METARとTAF

ロメ空港 ( DXXX / LFW ) - トーゴ ロメ
飛行場実況気象(Metar)
観測時間04/27 04:00 GMT (04/27 04:00 UTC)
風向・風速不定 1m/s
視程10km以上
天気現象
少しの雲 雲底高度 370m
気温27℃
湿度89%
気圧1011hPa
METARDXXX 270400Z VRB02KT 9999 FEW012 27/25 Q1011 NOSIG
過去の天気等 Google飛行場航空写真 Wunderground天気予報

過去48時間のMETAR

飛行場予報(TAF)
発表時間: 4/26 23:00 GMT (4/26 23:00 UTC)
予報対象時間: 27日0時 GMT ~ 28日6時 GMT
風向・風速西 3m/s
視程10km以上
少しの雲 雲底高度 370m
27日8時 GMT ~ 27日10時 GMT に徐々に
風向・風速南南西 5m/s
27日23時 GMT ~ 28日1時 GMT に徐々に
風向・風速西 3m/s
TAF DXXX 262300Z 2700/2806 26005KT 9999 FEW012
BECMG 2708/2710 20010KT
BECMG 2723/2801 26005KT